Time,TemperatureF,DewpointF,PressureIn,WindDirection,WindDirectionDegrees,WindSpeedMPH,WindSpeedGustMPH,Humidity,HourlyPrecipIn,Conditions,Clouds,dailyrainin,SoftwareType,DateUTC
2013-07-22 00:03:00,88.4,62.4,29.76,SSE,152,1.1,2.2,42,0.00,,,0.00,WUHU216HW,2013-07-22 07:03:00,
2013-07-22 00:08:00,88.6,62.6,29.75,SSE,148,3.8,6.7,42,0.00,,,0.00,WUHU216HW,2013-07-22 07:08:00,
2013-07-22 00:13:00,88.2,62.8,29.76,South,174,3.3,4.5,43,0.00,,,0.00,WUHU216HW,2013-07-22 07:13:00,
2013-07-22 00:18:00,87.8,62.6,29.76,South,188,3.5,5.4,43,0.00,,,0.00,WUHU216HW,2013-07-22 07:18:00,
2013-07-22 00:23:00,87.5,62.8,29.77,South,187,3.0,4.0,44,0.00,,,0.00,WUHU216HW,2013-07-22 07:23:00,
2013-07-22 00:28:00,86.9,62.4,29.77,South,174,2.8,4.7,44,0.00,,,0.00,WUHU216HW,2013-07-22 07:28:00,
2013-07-22 00:33:00,86.4,63.2,29.77,SSE,159,3.5,4.7,46,0.00,,,0.00,WUHU216HW,2013-07-22 07:33:00,
2013-07-22 00:38:00,85.7,63.1,29.76,South,188,3.9,6.9,47,0.00,,,0.00,WUHU216HW,2013-07-22 07:38:00,
2013-07-22 00:43:00,85.3,63.5,29.76,SSE,157,5.0,7.2,48,0.00,,,0.00,WUHU216HW,2013-07-22 07:43:00,
2013-07-22 00:48:00,85.3,62.2,29.77,SSE,167,5.0,7.2,46,0.00,,,0.00,WUHU216HW,2013-07-22 07:48:00,
2013-07-22 00:53:00,85.9,62.6,29.78,South,170,3.7,5.4,46,0.00,,,0.00,WUHU216HW,2013-07-22 07:53:00,
2013-07-22 00:58:00,86.0,62.2,29.78,SW,216,1.6,4.9,45,0.00,,,0.00,WUHU216HW,2013-07-22 07:58:00,
2013-07-22 01:03:00,85.9,62.6,29.79,SW,216,1.6,3.4,46,0.00,,,0.00,WUHU216HW,2013-07-22 08:03:00,
2013-07-22 01:08:00,85.7,62.5,29.79,SSE,155,1.4,2.5,46,0.00,,,0.00,WUHU216HW,2013-07-22 08:08:00,
2013-07-22 01:13:00,85.5,62.4,29.79,ESE,123,1.7,3.4,46,0.00,,,0.00,WUHU216HW,2013-07-22 08:13:00,
2013-07-22 01:18:00,85.3,62.8,29.79,SSE,147,1.8,3.6,47,0.00,,,0.00,WUHU216HW,2013-07-22 08:18:00,
2013-07-22 01:23:00,85.1,61.4,29.79,South,182,1.8,3.1,45,0.00,,,0.00,WUHU216HW,2013-07-22 08:23:00,
2013-07-22 01:28:00,85.0,61.8,29.79,SSE,160,2.1,3.4,46,0.00,,,0.00,WUHU216HW,2013-07-22 08:28:00,
2013-07-22 01:33:00,84.8,62.3,29.79,SSW,205,1.0,1.8,47,0.00,,,0.00,WUHU216HW,2013-07-22 08:33:00,
2013-07-22 01:38:00,84.4,62.0,29.79,ESE,123,0.7,1.3,47,0.00,,,0.00,WUHU216HW,2013-07-22 08:38:00,
2013-07-22 01:43:00,84.2,61.8,29.79,ESE,113,1.4,2.2,47,0.00,,,0.00,WUHU216HW,2013-07-22 08:43:00,
2013-07-22 01:48:00,84.2,61.8,29.80,ESE,108,1.1,1.8,47,0.00,,,0.00,WUHU216HW,2013-07-22 08:48:00,
2013-07-22 01:53:00,84.2,61.8,29.79,SE,126,0.6,1.1,47,0.00,,,0.00,WUHU216HW,2013-07-22 08:53:00,
2013-07-22 01:58:00,84.2,61.8,29.79,East,98,0.5,0.7,47,0.00,,,0.00,WUHU216HW,2013-07-22 08:58:00,
2013-07-22 02:03:00,84.2,61.8,29.79,SE,131,0.5,1.1,47,0.00,,,0.00,WUHU216HW,2013-07-22 09:03:00,
2013-07-22 02:08:00,84.2,61.8,29.79,SE,127,0.7,1.3,47,0.00,,,0.00,WUHU216HW,2013-07-22 09:08:00,
2013-07-22 02:13:00,84.1,61.7,29.79,ESE,120,0.3,0.7,47,0.00,,,0.00,WUHU216HW,2013-07-22 09:13:00,
2013-07-22 02:18:00,83.9,62.1,29.79,SE,139,0.6,1.1,48,0.00,,,0.00,WUHU216HW,2013-07-22 09:18:00,
2013-07-22 02:23:00,83.7,61.9,29.79,SSE,150,1.1,1.8,48,0.00,,,0.00,WUHU216HW,2013-07-22 09:23:00,
2013-07-22 02:28:00,83.5,61.7,29.79,SE,144,2.1,3.6,48,0.00,,,0.00,WUHU216HW,2013-07-22 09:28:00,
2013-07-22 02:33:00,83.5,61.7,29.79,SSE,149,2.6,3.8,48,0.00,,,0.00,WUHU216HW,2013-07-22 09:33:00,
2013-07-22 02:38:00,83.5,62.4,29.79,SSE,152,2.4,3.8,49,0.00,,,0.00,WUHU216HW,2013-07-22 09:38:00,
2013-07-22 02:43:00,83.5,61.7,29.79,SSE,160,2.3,3.4,48,0.00,,,0.00,WUHU216HW,2013-07-22 09:43:00,
2013-07-22 02:48:00,83.5,61.7,29.79,SE,142,1.9,3.1,48,0.00,,,0.00,WUHU216HW,2013-07-22 09:48:00,
2013-07-22 02:53:00,83.3,61.6,29.79,SSE,162,1.7,2.5,48,0.00,,,0.00,WUHU216HW,2013-07-22 09:53:00,
2013-07-22 02:58:00,83.3,61.6,29.79,ESE,121,0.6,1.8,48,0.00,,,0.00,WUHU216HW,2013-07-22 09:58:00,
2013-07-22 03:03:00,83.2,61.4,29.79,SE,132,0.5,1.1,48,0.00,,,0.00,WUHU216HW,2013-07-22 10:03:00,
2013-07-22 03:08:00,83.2,61.4,29.79,SE,130,0.4,0.9,48,0.00,,,0.00,WUHU216HW,2013-07-22 10:08:00,
2013-07-22 03:13:00,83.0,61.8,29.79,SE,141,0.7,1.1,49,0.00,,,0.00,WUHU216HW,2013-07-22 10:13:00,
2013-07-22 03:18:00,82.6,61.5,29.79,SE,142,0.5,1.1,49,0.00,,,0.00,WUHU216HW,2013-07-22 10:18:00,
2013-07-22 03:23:00,82.4,61.3,29.79,SE,126,0.7,1.6,49,0.00,,,0.00,WUHU216HW,2013-07-22 10:23:00,
2013-07-22 03:28:00,82.3,61.7,29.79,SE,146,0.6,0.7,50,0.00,,,0.00,WUHU216HW,2013-07-22 10:28:00,
2013-07-22 03:33:00,82.1,61.6,29.80,SW,214,0.5,1.1,50,0.00,,,0.00,WUHU216HW,2013-07-22 10:33:00,
2013-07-22 03:38:00,82.1,61.6,29.79,SSW,203,0.4,0.4,50,0.00,,,0.00,WUHU216HW,2013-07-22 10:38:00,
2013-07-22 03:43:00,81.9,61.5,29.80,North,0,0.0,0.0,50,0.00,,,0.00,WUHU216HW,2013-07-22 10:43:00,
2013-07-22 03:48:00,81.7,61.3,29.80,SE,135,0.3,0.4,50,0.00,,,0.00,WUHU216HW,2013-07-22 10:48:00,
2013-07-22 03:53:00,81.7,61.3,29.80,North,0,0.0,0.0,50,0.00,,,0.00,WUHU216HW,2013-07-22 10:53:00,
2013-07-22 03:58:00,81.7,61.8,29.80,SSE,163,0.8,1.3,51,0.00,,,0.00,WUHU216HW,2013-07-22 10:58:00,
2013-07-22 04:03:00,81.5,62.2,29.80,SSE,152,1.6,2.9,52,0.00,,,0.00,WUHU216HW,2013-07-22 11:03:00,
2013-07-22 04:08:00,81.4,62.0,29.79,SSE,150,1.5,1.8,52,0.00,,,0.00,WUHU216HW,2013-07-22 11:08:00,
2013-07-22 04:13:00,81.4,62.0,29.79,SSE,148,0.7,1.8,52,0.00,,,0.00,WUHU216HW,2013-07-22 11:13:00,
2013-07-22 04:18:00,81.4,62.0,29.79,ENE,64,0.6,1.1,52,0.00,,,0.00,WUHU216HW,2013-07-22 11:18:00,
2013-07-22 04:23:00,81.0,61.7,29.79,NE,47,0.4,0.7,52,0.00,,,0.00,WUHU216HW,2013-07-22 11:23:00,
2013-07-22 04:28:00,81.0,61.7,29.80,North,0,0.0,0.0,52,0.00,,,0.00,WUHU216HW,2013-07-22 11:28:00,
2013-07-22 04:33:00,80.6,61.8,29.80,SE,135,0.8,1.1,53,0.00,,,0.00,WUHU216HW,2013-07-22 11:33:00,
2013-07-22 04:38:00,80.3,62.1,29.80,SE,138,1.0,1.3,54,0.00,,,0.00,WUHU216HW,2013-07-22 11:38:00,
2013-07-22 04:43:00,80.3,62.1,29.80,South,181,0.6,1.1,54,0.00,,,0.00,WUHU216HW,2013-07-22 11:43:00,
2013-07-22 04:48:00,80.3,62.1,29.80,SW,225,0.3,0.4,54,0.00,,,0.00,WUHU216HW,2013-07-22 11:48:00,
2013-07-22 04:53:00,80.3,62.1,29.80,SW,222,0.4,0.4,54,0.00,,,0.00,WUHU216HW,2013-07-22 11:53:00,
2013-07-22 04:58:00,80.1,61.9,29.80,SW,225,0.3,0.4,54,0.00,,,0.00,WUHU216HW,2013-07-22 11:58:00,
2013-07-22 05:03:00,80.1,61.4,29.80,West,271,1.5,2.5,53,0.00,,,0.00,WUHU216HW,2013-07-22 12:03:00,
2013-07-22 05:08:00,79.9,61.2,29.80,WSW,253,0.6,1.3,53,0.00,,,0.00,WUHU216HW,2013-07-22 12:08:00,
2013-07-22 05:13:00,79.9,61.2,29.81,North,0,0.0,0.0,53,0.00,,,0.00,WUHU216HW,2013-07-22 12:13:00,
2013-07-22 05:18:00,79.9,61.2,29.81,SE,135,0.0,0.0,53,0.00,,,0.00,WUHU216HW,2013-07-22 12:18:00,
2013-07-22 06:05:00,78.8,60.2,29.82,North,0,0.0,0.0,53,0.00,,,0.00,WUHU216HW,2013-07-22 13:05:00,
2013-07-22 07:05:00,77.8,61.3,29.84,SE,135,0.2,0.2,57,0.00,,,0.00,WUHU216HW,2013-07-22 14:05:00,
2013-07-22 08:05:00,78.3,62.4,29.86,SW,225,0.7,0.7,58,0.00,,,0.00,WUHU216HW,2013-07-22 15:05:00,
2013-07-22 09:05:00,80.3,61.6,29.87,SSE,159,1.4,2.7,53,0.00,,,0.00,WUHU216HW,2013-07-22 16:05:00,
2013-07-22 09:10:00,80.6,60.9,29.87,SE,135,1.3,2.2,51,0.00,,,0.00,WUHU216HW,2013-07-22 16:10:00,
2013-07-22 09:15:00,81.0,60.7,29.87,SSE,155,1.6,2.5,50,0.00,,,0.00,WUHU216HW,2013-07-22 16:15:00,
2013-07-22 09:20:00,81.2,60.2,29.87,SSE,164,1.8,2.7,49,0.00,,,0.00,WUHU216HW,2013-07-22 16:20:00,
2013-07-22 09:25:00,81.4,59.8,29.87,SSE,165,2.0,2.9,48,0.00,,,0.00,WUHU216HW,2013-07-22 16:25:00,
2013-07-22 09:30:00,81.5,59.9,29.87,South,175,2.1,2.9,48,0.00,,,0.00,WUHU216HW,2013-07-22 16:30:00,
2013-07-22 09:35:00,81.9,60.9,29.87,SSE,158,1.5,2.5,49,0.00,,,0.00,WUHU216HW,2013-07-22 16:35:00,
2013-07-22 09:40:00,82.6,60.8,29.87,SSE,166,1.4,2.5,48,0.00,,,0.00,WUHU216HW,2013-07-22 16:40:00,
2013-07-22 09:45:00,83.5,61.1,29.87,South,184,2.2,3.6,47,0.00,,,0.00,WUHU216HW,2013-07-22 16:45:00,
2013-07-22 09:50:00,84.1,61.7,29.87,SSW,198,1.7,4.0,47,0.00,,,0.00,WUHU216HW,2013-07-22 16:50:00,
2013-07-22 09:55:00,85.0,61.8,29.87,SSE,157,2.5,4.3,46,0.00,,,0.00,WUHU216HW,2013-07-22 16:55:00,
2013-07-22 10:00:00,86.2,63.0,29.87,South,180,2.7,4.5,46,0.00,,,0.00,WUHU216HW,2013-07-22 17:00:00,
2013-07-22 10:05:00,86.9,63.0,29.87,South,170,2.0,3.1,45,0.00,,,0.00,WUHU216HW,2013-07-22 17:05:00,
2013-07-22 10:10:00,87.5,62.8,29.87,South,187,2.5,4.5,44,0.00,,,0.00,WUHU216HW,2013-07-22 17:10:00,
2013-07-22 10:15:00,88.2,62.8,29.87,South,190,2.7,4.0,43,0.00,,,0.00,WUHU216HW,2013-07-22 17:15:00,
2013-07-22 10:20:00,88.4,62.4,29.87,SSE,166,1.8,2.5,42,0.00,,,0.00,WUHU216HW,2013-07-22 17:20:00,
2013-07-22 10:25:00,88.6,62.6,29.88,South,179,3.2,4.7,42,0.00,,,0.00,WUHU216HW,2013-07-22 17:25:00,
2013-07-22 10:30:00,88.4,61.1,29.88,SSW,200,3.6,5.4,40,0.00,,,0.00,WUHU216HW,2013-07-22 17:30:00,
2013-07-22 10:35:00,88.6,61.8,29.88,SSW,193,2.3,4.0,41,0.00,,,0.00,WUHU216HW,2013-07-22 17:35:00,
2013-07-22 10:40:00,88.2,62.2,29.88,SSE,167,2.5,4.0,42,0.00,,,0.00,WUHU216HW,2013-07-22 17:40:00,
2013-07-22 10:45:00,88.6,63.2,29.88,South,174,2.6,3.4,43,0.00,,,0.00,WUHU216HW,2013-07-22 17:45:00,
2013-07-22 10:50:00,88.6,62.6,29.88,South,180,3.3,5.4,42,0.00,,,0.00,WUHU216HW,2013-07-22 17:50:00,
2013-07-22 10:55:00,88.7,62.6,29.88,SSW,203,2.9,4.7,42,0.00,,,0.00,WUHU216HW,2013-07-22 17:55:00,
2013-07-22 11:00:00,89.3,61.8,29.88,South,190,2.6,4.0,40,0.00,,,0.00,WUHU216HW,2013-07-22 18:00:00,
2013-07-22 11:05:00,89.8,62.9,29.88,SSW,203,2.3,3.8,41,0.00,,,0.00,WUHU216HW,2013-07-22 18:05:00,
2013-07-22 11:10:00,90.4,63.4,29.88,WSW,252,2.0,3.6,41,0.00,,,0.00,WUHU216HW,2013-07-22 18:10:00,
2013-07-22 11:15:00,90.4,62.7,29.88,SW,215,2.4,4.3,40,0.00,,,0.00,WUHU216HW,2013-07-22 18:15:00,
2013-07-22 11:20:00,90.2,62.6,29.88,WSW,248,2.2,4.0,40,0.00,,,0.00,WUHU216HW,2013-07-22 18:20:00,
2013-07-22 11:25:00,90.4,62.7,29.88,WSW,254,2.1,4.3,40,0.00,,,0.00,WUHU216HW,2013-07-22 18:25:00,
2013-07-22 11:30:00,90.7,63.1,29.88,SSW,202,2.1,4.7,40,0.00,,,0.00,WUHU216HW,2013-07-22 18:30:00,
2013-07-22 11:35:00,91.3,62.7,29.88,WSW,255,1.9,3.8,39,0.00,,,0.00,WUHU216HW,2013-07-22 18:35:00,
2013-07-22 11:40:00,91.8,63.3,29.88,SSW,213,2.5,5.1,39,0.00,,,0.00,WUHU216HW,2013-07-22 18:40:00,
2013-07-22 11:46:00,92.3,62.9,29.87,SSW,196,3.5,5.1,38,0.00,,,0.00,WUHU216HW,2013-07-22 18:46:00,
2013-07-22 11:51:00,92.9,62.7,29.88,South,185,2.7,4.3,37,0.00,,,0.00,WUHU216HW,2013-07-22 18:51:00,
2013-07-22 11:56:00,93.2,62.1,29.87,SSW,205,2.8,4.7,36,0.00,,,0.00,WUHU216HW,2013-07-22 18:56:00,
2013-07-22 12:02:00,92.9,63.4,29.87,SW,224,2.6,4.5,38,0.00,,,0.00,WUHU216HW,2013-07-22 19:02:00,
2013-07-22 12:07:00,93.4,62.3,29.87,SSW,211,2.6,5.1,36,0.00,,,0.00,WUHU216HW,2013-07-22 19:07:00,
2013-07-22 12:12:00,93.6,63.3,29.87,WSW,239,2.2,3.8,37,0.00,,,0.00,WUHU216HW,2013-07-22 19:12:00,
2013-07-22 12:18:00,93.4,62.3,29.87,SW,215,2.1,5.4,36,0.00,,,0.00,WUHU216HW,2013-07-22 19:18:00,
2013-07-22 12:23:00,93.6,63.3,29.87,South,186,2.3,4.3,37,0.00,,,0.00,WUHU216HW,2013-07-22 19:23:00,
2013-07-22 12:28:00,94.3,63.9,29.87,WNW,293,2.3,4.0,37,0.00,,,0.00,WUHU216HW,2013-07-22 19:28:00,
2013-07-22 12:33:00,94.1,62.9,29.87,West,274,2.9,4.5,36,0.00,,,0.00,WUHU216HW,2013-07-22 19:33:00,
2013-07-22 12:38:00,94.0,63.5,29.87,WSW,243,2.2,3.4,37,0.00,,,0.00,WUHU216HW,2013-07-22 19:38:00,
2013-07-22 12:43:00,94.3,63.9,29.87,SW,216,2.2,4.3,37,0.00,,,0.00,WUHU216HW,2013-07-22 19:43:00,
2013-07-22 12:48:00,94.3,64.7,29.86,West,277,2.8,5.4,38,0.00,,,0.00,WUHU216HW,2013-07-22 19:48:00,
2013-07-22 12:53:00,94.5,64.9,29.86,West,280,2.8,5.1,38,0.00,,,0.00,WUHU216HW,2013-07-22 19:53:00,
2013-07-22 12:58:00,94.9,64.4,29.87,South,170,3.5,5.1,37,0.00,,,0.00,WUHU216HW,2013-07-22 19:58:00,
2013-07-22 13:03:00,95.2,63.9,29.87,SW,232,2.4,4.0,36,0.00,,,0.00,WUHU216HW,2013-07-22 20:03:00,
2013-07-22 13:08:00,95.4,64.0,29.87,West,270,2.3,4.9,36,0.00,,,0.00,WUHU216HW,2013-07-22 20:08:00,
2013-07-22 13:13:00,95.8,63.6,29.87,WNW,284,2.9,5.4,35,0.00,,,0.00,WUHU216HW,2013-07-22 20:13:00,
2013-07-22 13:18:00,95.8,63.6,29.86,West,274,3.4,6.0,35,0.00,,,0.00,WUHU216HW,2013-07-22 20:18:00,
2013-07-22 13:23:00,95.9,64.5,29.86,WNW,287,1.5,4.0,36,0.00,,,0.00,WUHU216HW,2013-07-22 20:23:00,
2013-07-22 13:28:00,96.7,63.5,29.86,SW,233,2.1,4.7,34,0.00,,,0.00,WUHU216HW,2013-07-22 20:28:00,
2013-07-22 13:33:00,97.0,63.8,29.86,WSW,252,1.9,4.5,34,0.00,,,0.00,WUHU216HW,2013-07-22 20:33:00,
2013-07-22 13:38:00,96.5,63.3,29.86,WNW,291,2.1,5.1,34,0.00,,,0.00,WUHU216HW,2013-07-22 20:38:00,
2013-07-22 13:43:00,96.1,63.0,29.86,WNW,282,2.1,4.7,34,0.00,,,0.00,WUHU216HW,2013-07-22 20:43:00,
2013-07-22 13:48:00,95.6,63.4,29.86,WNW,283,1.5,4.5,35,0.00,,,0.00,WUHU216HW,2013-07-22 20:48:00,
2013-07-22 13:53:00,95.9,63.7,29.85,West,273,1.2,2.5,35,0.00,,,0.00,WUHU216HW,2013-07-22 20:53:00,
2013-07-22 13:58:00,96.1,63.8,29.85,West,281,2.2,4.0,35,0.00,,,0.00,WUHU216HW,2013-07-22 20:58:00,
2013-07-22 14:03:00,95.9,63.7,29.85,SW,229,1.2,2.5,35,0.00,,,0.00,WUHU216HW,2013-07-22 21:03:00,
2013-07-22 14:08:00,96.1,63.8,29.85,NW,306,1.5,3.8,35,0.00,,,0.00,WUHU216HW,2013-07-22 21:08:00,
2013-07-22 14:13:00,95.8,63.6,29.85,NW,313,1.1,2.5,35,0.00,,,0.00,WUHU216HW,2013-07-22 21:13:00,
2013-07-22 14:18:00,95.9,63.7,29.86,West,261,0.6,1.8,35,0.00,,,0.00,WUHU216HW,2013-07-22 21:18:00,
2013-07-22 14:23:00,95.9,63.7,29.86,South,189,1.2,2.2,35,0.00,,,0.00,WUHU216HW,2013-07-22 21:23:00,
2013-07-22 14:28:00,95.6,63.4,29.85,SSE,159,1.6,2.5,35,0.00,,,0.00,WUHU216HW,2013-07-22 21:28:00,
2013-07-22 14:33:00,95.4,64.0,29.85,SSE,160,1.5,2.5,36,0.00,,,0.00,WUHU216HW,2013-07-22 21:33:00,
2013-07-22 14:38:00,95.0,64.5,29.85,SSE,150,1.9,3.4,37,0.00,,,0.00,WUHU216HW,2013-07-22 21:38:00,
2013-07-22 14:43:00,94.3,65.5,29.85,South,180,1.6,2.5,39,0.00,,,0.00,WUHU216HW,2013-07-22 21:43:00,
2013-07-22 14:48:00,94.0,66.0,29.85,South,170,1.9,2.7,40,0.00,,,0.00,WUHU216HW,2013-07-22 21:48:00,
2013-07-22 14:53:00,93.4,65.5,29.86,SE,130,0.7,1.6,40,0.00,,,0.00,WUHU216HW,2013-07-22 21:53:00,
2013-07-22 14:58:00,92.9,65.0,29.86,SE,127,0.6,1.3,40,0.00,,,0.00,WUHU216HW,2013-07-22 21:58:00,
2013-07-22 15:04:00,92.3,65.2,29.86,SE,130,0.7,1.8,41,0.00,,,0.00,WUHU216HW,2013-07-22 22:04:00,
2013-07-22 15:09:00,92.0,64.9,29.86,ESE,110,0.3,0.4,41,0.00,,,0.00,WUHU216HW,2013-07-22 22:09:00,
2013-07-22 15:14:00,91.8,65.3,29.86,ENE,66,0.6,0.7,42,0.00,,,0.00,WUHU216HW,2013-07-22 22:14:00,
2013-07-22 15:19:00,91.4,65.7,29.85,North,9,0.7,1.1,43,0.00,,,0.00,WUHU216HW,2013-07-22 22:19:00,
2013-07-22 15:24:00,90.9,67.2,29.86,North,0,0.4,0.4,46,0.00,,,0.00,WUHU216HW,2013-07-22 22:24:00,
2013-07-22 15:29:00,90.4,68.0,29.86,North,0,0.0,0.0,48,0.00,,,0.00,WUHU216HW,2013-07-22 22:29:00,
2013-07-22 15:34:00,89.8,68.1,29.85,NW,314,0.8,1.1,49,0.00,,,0.00,WUHU216HW,2013-07-22 22:34:00,
2013-07-22 15:39:00,89.3,68.2,29.85,WNW,296,1.0,1.6,50,0.00,,,0.00,WUHU216HW,2013-07-22 22:39:00,
2013-07-22 15:44:00,88.9,69.6,29.86,ENE,68,0.3,0.4,53,0.00,,,0.00,WUHU216HW,2013-07-22 22:44:00,
2013-07-22 15:49:00,88.0,69.9,29.85,WSW,237,0.5,0.9,55,0.00,,,0.00,WUHU216HW,2013-07-22 22:49:00,
2013-07-22 15:54:00,87.7,68.9,29.85,WNW,290,0.6,1.6,54,0.00,,,0.00,WUHU216HW,2013-07-22 22:54:00,
2013-07-22 15:59:00,87.5,69.3,29.85,NNW,338,0.4,0.7,55,0.00,,,0.00,WUHU216HW,2013-07-22 22:59:00,
2013-07-22 16:04:00,87.5,70.4,29.85,NNE,32,0.8,1.3,57,0.00,,,0.00,WUHU216HW,2013-07-22 23:04:00,
2013-07-22 16:09:00,87.1,70.6,29.85,NE,38,0.6,0.9,58,0.00,,,0.00,WUHU216HW,2013-07-22 23:09:00,
2013-07-22 16:14:00,86.9,70.9,29.85,North,0,0.0,0.0,59,0.00,,,0.00,WUHU216HW,2013-07-22 23:14:00,
2013-07-22 16:19:00,86.8,70.7,29.85,North,0,0.3,0.4,59,0.01,,,0.01,WUHU216HW,2013-07-22 23:19:00,
2013-07-22 16:24:00,86.6,71.1,29.86,North,0,0.0,0.0,60,0.01,,,0.01,WUHU216HW,2013-07-22 23:24:00,
2013-07-22 16:29:00,86.6,71.6,29.86,North,0,0.0,0.0,61,0.01,,,0.01,WUHU216HW,2013-07-22 23:29:00,
2013-07-22 16:34:00,85.9,72.3,29.86,SW,215,0.9,1.3,64,0.01,,,0.01,WUHU216HW,2013-07-22 23:34:00,
2013-07-22 16:39:00,85.1,72.0,29.85,SW,225,0.7,1.8,65,0.01,,,0.01,WUHU216HW,2013-07-22 23:39:00,
2013-07-22 16:44:00,85.0,72.4,29.85,WNW,295,1.0,1.3,66,0.01,,,0.01,WUHU216HW,2013-07-22 23:44:00,
2013-07-22 16:49:00,84.8,73.5,29.85,North,352,1.1,2.2,69,0.01,,,0.01,WUHU216HW,2013-07-22 23:49:00,
2013-07-22 16:54:00,83.9,73.1,29.85,North,358,1.3,2.2,70,0.01,,,0.01,WUHU216HW,2013-07-22 23:54:00,
2013-07-22 16:59:00,83.7,72.5,29.86,ESE,105,0.6,1.1,69,0.01,,,0.01,WUHU216HW,2013-07-22 23:59:00,
2013-07-22 17:04:00,83.7,72.0,29.85,North,356,0.3,0.9,68,0.01,,,0.01,WUHU216HW,2013-07-23 00:04:00,
2013-07-22 17:09:00,83.5,71.4,29.84,NNW,338,0.7,1.1,67,0.01,,,0.01,WUHU216HW,2013-07-23 00:09:00,
2013-07-22 17:14:00,83.3,71.2,29.84,SSE,166,1.4,2.0,67,0.01,,,0.01,WUHU216HW,2013-07-23 00:14:00,
2013-07-22 17:19:00,83.5,71.4,29.84,South,171,1.8,3.4,67,0.00,,,0.01,WUHU216HW,2013-07-23 00:19:00,
2013-07-22 17:24:00,83.5,71.8,29.84,SSE,166,0.8,1.3,68,0.00,,,0.01,WUHU216HW,2013-07-23 00:24:00,
2013-07-22 17:29:00,83.7,72.9,29.84,WSW,248,0.4,0.9,70,0.00,,,0.01,WUHU216HW,2013-07-23 00:29:00,
2013-07-22 17:34:00,83.7,72.5,29.84,West,278,1.2,2.0,69,0.00,,,0.01,WUHU216HW,2013-07-23 00:34:00,
2013-07-22 17:39:00,83.9,72.6,29.84,NW,305,0.2,0.2,69,0.00,,,0.01,WUHU216HW,2013-07-23 00:39:00,
2013-07-22 17:44:00,84.1,72.8,29.84,ENE,63,0.6,0.9,69,0.00,,,0.01,WUHU216HW,2013-07-23 00:44:00,
2013-07-22 17:49:00,84.2,73.0,29.83,ENE,72,0.6,1.1,69,0.00,,,0.01,WUHU216HW,2013-07-23 00:49:00,
2013-07-22 17:54:00,84.2,73.0,29.83,North,354,0.3,0.7,69,0.00,,,0.01,WUHU216HW,2013-07-23 00:54:00,
2013-07-22 17:59:00,84.2,73.4,29.83,North,354,0.9,2.0,70,0.00,,,0.01,WUHU216HW,2013-07-23 00:59:00,
2013-07-22 18:04:00,83.9,72.6,29.83,NNW,332,0.7,1.8,69,0.00,,,0.01,WUHU216HW,2013-07-23 01:04:00,
2013-07-22 18:09:00,83.9,72.6,29.83,NNW,335,0.5,1.8,69,0.00,,,0.01,WUHU216HW,2013-07-23 01:09:00,
2013-07-22 18:14:00,83.7,72.0,29.83,NNW,338,0.6,1.1,68,0.00,,,0.01,WUHU216HW,2013-07-23 01:14:00,
2013-07-22 18:19:00,83.9,72.2,29.84,NW,323,0.5,1.1,68,0.00,,,0.01,WUHU216HW,2013-07-23 01:19:00,
2013-07-22 18:24:00,84.1,71.9,29.84,NNW,340,0.4,0.4,67,0.00,,,0.01,WUHU216HW,2013-07-23 01:24:00,
2013-07-22 18:29:00,84.2,72.1,29.84,NNW,328,0.7,2.2,67,0.00,,,0.01,WUHU216HW,2013-07-23 01:29:00,
2013-07-22 18:34:00,84.1,71.9,29.84,NNW,335,0.7,1.3,67,0.00,,,0.01,WUHU216HW,2013-07-23 01:34:00,
2013-07-22 18:39:00,84.1,71.5,29.84,NW,311,2.4,3.1,66,0.00,,,0.01,WUHU216HW,2013-07-23 01:39:00,
2013-07-22 18:44:00,83.9,71.3,29.84,NW,312,1.8,2.5,66,0.00,,,0.01,WUHU216HW,2013-07-23 01:44:00,
2013-07-22 18:49:00,83.9,71.3,29.85,NW,318,0.7,1.6,66,0.00,,,0.01,WUHU216HW,2013-07-23 01:49:00,
2013-07-22 18:54:00,83.7,71.6,29.85,NNW,338,0.6,0.9,67,0.00,,,0.01,WUHU216HW,2013-07-23 01:54:00,
2013-07-22 18:59:00,83.5,71.4,29.85,NNW,337,0.6,0.9,67,0.00,,,0.01,WUHU216HW,2013-07-23 01:59:00,
2013-07-22 19:04:00,83.3,71.6,29.85,NNW,347,0.5,0.9,68,0.00,,,0.01,WUHU216HW,2013-07-23 02:04:00,
2013-07-22 19:09:00,83.2,72.4,29.85,North,350,0.6,1.3,70,0.00,,,0.01,WUHU216HW,2013-07-23 02:09:00,
2013-07-22 19:14:00,83.0,72.2,29.84,North,358,0.6,1.3,70,0.00,,,0.01,WUHU216HW,2013-07-23 02:14:00,
2013-07-22 19:19:00,83.0,71.3,29.84,NNW,346,0.4,1.1,68,0.00,,,0.01,WUHU216HW,2013-07-23 02:19:00,
2013-07-22 19:24:00,83.0,71.3,29.84,North,354,0.4,0.7,68,0.00,,,0.01,WUHU216HW,2013-07-23 02:24:00,
2013-07-22 19:29:00,83.2,71.0,29.85,North,8,0.4,0.4,67,0.00,,,0.01,WUHU216HW,2013-07-23 02:29:00,
2013-07-22 19:34:00,83.3,71.2,29.85,North,0,0.0,0.0,67,0.00,,,0.01,WUHU216HW,2013-07-23 02:34:00,
2013-07-22 19:39:00,83.3,71.2,29.85,North,0,0.0,0.0,67,0.00,,,0.01,WUHU216HW,2013-07-23 02:39:00,
2013-07-22 19:44:00,83.5,71.4,29.86,North,0,0.0,0.0,67,0.00,,,0.01,WUHU216HW,2013-07-23 02:44:00,
2013-07-22 19:49:00,83.3,71.2,29.85,North,0,0.0,0.0,67,0.00,,,0.01,WUHU216HW,2013-07-23 02:49:00,
2013-07-22 19:54:00,83.2,71.0,29.85,NW,309,1.0,1.3,67,0.00,,,0.01,WUHU216HW,2013-07-23 02:54:00,
2013-07-22 19:59:00,83.0,70.8,29.84,West,270,0.6,1.3,67,0.00,,,0.01,WUHU216HW,2013-07-23 02:59:00,
2013-07-22 20:04:00,83.0,70.8,29.84,North,0,0.0,0.0,67,0.00,,,0.01,WUHU216HW,2013-07-23 03:04:00,
2013-07-22 20:09:00,82.8,70.7,29.84,West,270,0.8,1.1,67,0.00,,,0.01,WUHU216HW,2013-07-23 03:09:00,
2013-07-22 20:14:00,82.8,71.1,29.83,West,270,0.7,1.1,68,0.00,,,0.01,WUHU216HW,2013-07-23 03:14:00,
2013-07-22 20:19:00,82.4,71.2,29.83,West,276,0.5,0.9,69,0.00,,,0.01,WUHU216HW,2013-07-23 03:19:00,
2013-07-22 20:24:00,82.4,71.2,29.83,NW,321,0.5,0.9,69,0.00,,,0.01,WUHU216HW,2013-07-23 03:24:00,
2013-07-22 20:29:00,82.1,70.8,29.83,NE,34,0.6,1.6,69,0.00,,,0.01,WUHU216HW,2013-07-23 03:29:00,
2013-07-22 20:34:00,81.7,70.6,29.84,ENE,62,0.3,0.4,69,0.00,,,0.01,WUHU216HW,2013-07-23 03:34:00,
2013-07-22 20:39:00,81.4,70.7,29.84,North,0,0.0,0.0,70,0.00,,,0.01,WUHU216HW,2013-07-23 03:39:00,
2013-07-22 20:44:00,81.2,70.5,29.84,NW,315,0.5,0.9,70,0.00,,,0.01,WUHU216HW,2013-07-23 03:44:00,
2013-07-22 20:49:00,81.2,70.9,29.83,North,0,0.0,0.0,71,0.00,,,0.01,WUHU216HW,2013-07-23 03:49:00,
2013-07-22 20:54:00,81.0,70.7,29.84,NW,315,0.6,0.7,71,0.00,,,0.01,WUHU216HW,2013-07-23 03:54:00,
2013-07-22 20:59:00,81.0,70.7,29.84,NW,315,0.8,1.8,71,0.00,,,0.01,WUHU216HW,2013-07-23 03:59:00,
2013-07-22 21:04:00,81.0,70.7,29.84,NW,317,0.9,1.8,71,0.00,,,0.01,WUHU216HW,2013-07-23 04:04:00,
2013-07-22 21:09:00,80.8,71.0,29.84,NW,319,0.3,0.4,72,0.00,,,0.01,WUHU216HW,2013-07-23 04:09:00,
2013-07-22 21:14:00,80.6,70.8,29.84,NNW,338,0.3,0.4,72,0.00,,,0.01,WUHU216HW,2013-07-23 04:14:00,
2013-07-22 21:19:00,80.6,70.8,29.85,NNW,338,0.3,0.4,72,0.00,,,0.01,WUHU216HW,2013-07-23 04:19:00,
2013-07-22 21:24:00,80.3,70.8,29.85,North,354,0.4,0.9,73,0.00,,,0.01,WUHU216HW,2013-07-23 04:24:00,
2013-07-22 21:29:00,80.1,70.7,29.86,North,6,0.6,1.1,73,0.00,,,0.01,WUHU216HW,2013-07-23 04:29:00,
2013-07-22 21:34:00,79.9,70.5,29.86,North,0,0.0,0.0,73,0.00,,,0.01,WUHU216HW,2013-07-23 04:34:00,
2013-07-22 21:39:00,80.1,70.3,29.87,NW,323,0.5,0.7,72,0.00,,,0.01,WUHU216HW,2013-07-23 04:39:00,
2013-07-22 21:44:00,80.1,70.3,29.87,NNW,338,0.4,0.7,72,0.00,,,0.01,WUHU216HW,2013-07-23 04:44:00,
2013-07-22 21:49:00,80.3,70.5,29.87,NW,320,0.5,0.7,72,0.00,,,0.01,WUHU216HW,2013-07-23 04:49:00,
2013-07-22 21:54:00,80.5,70.7,29.87,NW,315,0.3,0.4,72,0.00,,,0.01,WUHU216HW,2013-07-23 04:54:00,
2013-07-22 21:59:00,80.5,70.7,29.87,North,0,0.0,0.0,72,0.00,,,0.01,WUHU216HW,2013-07-23 04:59:00,
2013-07-22 22:04:00,80.3,70.8,29.87,North,0,0.0,0.0,73,0.00,,,0.01,WUHU216HW,2013-07-23 05:04:00,
2013-07-22 22:09:00,80.3,70.8,29.87,North,0,0.0,0.0,73,0.00,,,0.01,WUHU216HW,2013-07-23 05:09:00,
2013-07-22 22:14:00,80.3,70.8,29.87,North,0,0.0,0.0,73,0.00,,,0.01,WUHU216HW,2013-07-23 05:14:00,
2013-07-22 22:19:00,79.7,70.8,29.87,SW,225,0.2,0.2,74,0.00,,,0.01,WUHU216HW,2013-07-23 05:19:00,
2013-07-22 22:24:00,79.7,70.3,29.87,SE,135,0.4,0.4,73,0.00,,,0.01,WUHU216HW,2013-07-23 05:24:00,
2013-07-22 22:29:00,79.6,70.1,29.87,East,93,0.6,1.1,73,0.00,,,0.01,WUHU216HW,2013-07-23 05:29:00,
2013-07-22 22:34:00,79.4,69.9,29.87,ENE,78,0.4,0.9,73,0.00,,,0.01,WUHU216HW,2013-07-23 05:34:00,
2013-07-22 22:39:00,79.2,70.2,29.87,East,93,0.3,0.4,74,0.00,,,0.01,WUHU216HW,2013-07-23 05:39:00,
2013-07-22 22:44:00,79.0,70.0,29.87,ESE,113,0.2,0.2,74,0.00,,,0.01,WUHU216HW,2013-07-23 05:44:00,
2013-07-22 22:49:00,78.8,70.2,29.87,SE,135,0.5,0.7,75,0.00,,,0.01,WUHU216HW,2013-07-23 05:49:00,
2013-07-22 22:54:00,78.7,70.0,29.87,SE,138,0.3,0.4,75,0.00,,,0.01,WUHU216HW,2013-07-23 05:54:00,
2013-07-22 22:59:00,78.3,69.7,29.87,SE,124,0.4,1.1,75,0.00,,,0.01,WUHU216HW,2013-07-23 05:59:00,
2013-07-22 23:04:00,78.1,69.5,29.88,SE,135,0.3,0.4,75,0.00,,,0.01,WUHU216HW,2013-07-23 06:04:00,
2013-07-22 23:09:00,77.9,69.3,29.88,SSE,160,0.4,0.9,75,0.00,,,0.01,WUHU216HW,2013-07-23 06:09:00,
2013-07-22 23:14:00,77.9,69.3,29.88,North,0,0.0,0.0,75,0.00,,,0.01,WUHU216HW,2013-07-23 06:14:00,
2013-07-22 23:19:00,77.8,69.2,29.88,North,0,0.0,0.0,75,0.00,,,0.01,WUHU216HW,2013-07-23 06:19:00,
2013-07-22 23:24:00,77.8,69.2,29.88,North,0,0.0,0.0,75,0.00,,,0.01,WUHU216HW,2013-07-23 06:24:00,
2013-07-22 23:29:00,77.6,69.0,29.88,North,0,0.0,0.0,75,0.00,,,0.01,WUHU216HW,2013-07-23 06:29:00,
2013-07-22 23:34:00,77.4,68.9,29.87,SE,135,0.2,0.2,75,0.00,,,0.01,WUHU216HW,2013-07-23 06:34:00,
2013-07-22 23:39:00,77.2,68.7,29.87,SE,135,0.2,0.2,75,0.00,,,0.01,WUHU216HW,2013-07-23 06:39:00,
2013-07-22 23:44:00,77.0,68.5,29.87,North,0,0.0,0.0,75,0.00,,,0.01,WUHU216HW,2013-07-23 06:44:00,
2013-07-22 23:49:00,77.0,68.5,29.87,North,0,0.0,0.0,75,0.00,,,0.01,WUHU216HW,2013-07-23 06:49:00,
2013-07-22 23:54:00,76.9,68.3,29.87,North,0,0.0,0.0,75,0.00,,,0.01,WUHU216HW,2013-07-23 06:54:00,
2013-07-22 23:59:00,76.7,68.1,29.87,North,0,0.0,0.0,75,0.00,,,0.00,WUHU216HW,2013-07-23 06:59:00,